createdAt,value
2019-03-10T00:01:07.480Z,4.37
2019-03-10T00:03:41.117Z,4.70
2019-03-10T00:06:14.846Z,3.13
2019-03-10T00:08:48.532Z,5.57
2019-03-10T00:11:22.244Z,4.03
2019-03-10T00:13:55.914Z,3.77
2019-03-10T00:16:29.652Z,4.40
2019-03-10T00:19:03.276Z,4.40
2019-03-10T00:21:36.958Z,4.10
2019-03-10T00:24:10.665Z,1.93
2019-03-10T00:26:44.588Z,3.50
2019-03-10T00:29:18.288Z,4.30
2019-03-10T00:31:51.991Z,3.13
2019-03-10T00:34:25.738Z,2.70
2019-03-10T00:37:02.480Z,1.87
2019-03-10T00:43:39.601Z,3.20
2019-03-10T00:46:37.626Z,3.57
2019-03-10T00:49:45.405Z,3.23
2019-03-10T00:52:25.005Z,5.13
2019-03-10T00:58:44.562Z,6.20
2019-03-10T01:01:18.395Z,10.53
2019-03-10T01:03:52.043Z,11.67
2019-03-10T01:06:25.966Z,7.63
2019-03-10T01:08:59.798Z,12.80
2019-03-10T01:15:12.050Z,12.17
2019-03-10T01:17:47.399Z,8.30
2019-03-10T01:20:21.203Z,8.90
2019-03-10T01:22:56.018Z,13.93
2019-03-10T01:25:29.700Z,10.13
2019-03-10T01:28:04.614Z,10.73
2019-03-10T01:30:41.335Z,10.37
2019-03-10T01:33:29.884Z,9.77
2019-03-10T01:36:04.002Z,10.03
2019-03-10T01:38:37.590Z,10.00
2019-03-10T01:41:12.418Z,11.17
2019-03-10T01:43:46.123Z,16.07
2019-03-10T01:46:19.852Z,13.90
2019-03-10T01:48:53.658Z,17.00
2019-03-10T01:51:27.408Z,8.80
2019-03-10T01:54:01.029Z,8.37
2019-03-10T01:56:34.668Z,9.07
2019-03-10T01:59:09.857Z,14.47
2019-03-10T02:01:43.483Z,10.77
2019-03-10T02:04:17.262Z,11.57
2019-03-10T02:06:50.933Z,13.53
2019-03-10T02:09:24.680Z,11.90
2019-03-10T02:11:58.323Z,5.90
2019-03-10T02:14:31.908Z,10.57
2019-03-10T02:17:05.736Z,13.40
2019-03-10T02:19:39.270Z,13.00
2019-03-10T02:22:12.923Z,12.03
2019-03-10T02:24:46.675Z,15.70
2019-03-10T02:27:20.269Z,13.67
2019-03-10T02:29:57.103Z,17.30
2019-03-10T02:32:30.744Z,11.50
2019-03-10T02:35:05.922Z,9.53
2019-03-10T02:37:42.131Z,16.63
2019-03-10T02:43:52.899Z,12.17
2019-03-10T02:46:26.500Z,15.23
2019-03-10T02:49:00.162Z,8.93
2019-03-10T02:51:33.802Z,7.87
2019-03-10T02:54:07.551Z,13.63
2019-03-10T03:00:18.560Z,10.73
2019-03-10T03:02:52.212Z,15.03
2019-03-10T03:05:26.057Z,13.30
2019-03-10T03:07:59.602Z,10.77
2019-03-10T03:10:33.400Z,10.67
2019-03-10T03:13:09.925Z,8.90
2019-03-10T03:15:43.596Z,9.30
2019-03-10T03:18:17.198Z,11.90
2019-03-10T03:20:50.847Z,12.37
2019-03-10T03:23:24.506Z,10.90
2019-03-10T03:25:58.229Z,11.33
2019-03-10T03:28:31.830Z,9.23
2019-03-10T03:31:05.772Z,8.53
2019-03-10T03:33:39.373Z,5.93
2019-03-10T03:36:21.884Z,6.40
2019-03-10T03:39:07.454Z,7.77
2019-03-10T03:41:41.069Z,9.43
2019-03-10T03:44:15.155Z,5.97
2019-03-10T03:46:48.903Z,11.43
2019-03-10T03:49:22.682Z,10.87
2019-03-10T03:51:56.317Z,7.93
2019-03-10T03:54:29.903Z,11.40
2019-03-10T03:57:03.662Z,10.00
2019-03-10T03:59:37.376Z,10.67
2019-03-10T04:02:12.694Z,9.57
2019-03-10T04:04:46.499Z,6.30
2019-03-10T04:07:20.224Z,10.97
2019-03-10T04:09:53.969Z,14.47
2019-03-10T04:12:27.748Z,11.40
2019-03-10T04:15:01.615Z,18.70
2019-03-10T04:17:36.887Z,12.47
2019-03-10T04:20:10.905Z,23.23
2019-03-10T04:22:44.495Z,17.10
2019-03-10T04:25:18.082Z,15.73
2019-03-10T04:27:51.838Z,16.37
2019-03-10T04:30:25.590Z,16.70
2019-03-10T04:32:59.237Z,13.57
2019-03-10T04:35:32.919Z,15.63
2019-03-10T04:38:06.564Z,13.53
2019-03-10T04:40:40.145Z,17.20
2019-03-10T04:43:13.904Z,15.97
2019-03-10T04:45:47.663Z,9.53
2019-03-10T04:48:21.303Z,13.43
2019-03-10T04:50:55.046Z,12.10
2019-03-10T04:53:28.638Z,13.07
2019-03-10T04:59:49.003Z,12.33
2019-03-10T05:02:22.711Z,8.93
2019-03-10T05:04:57.511Z,13.83
2019-03-10T05:07:31.075Z,6.90
2019-03-10T05:10:05.989Z,8.77
2019-03-10T05:16:20.768Z,10.70
2019-03-10T05:18:54.364Z,7.73
2019-03-10T05:21:27.985Z,7.73
2019-03-10T05:24:04.265Z,5.00
2019-03-10T05:26:37.907Z,5.67
2019-03-10T05:29:11.555Z,5.67
2019-03-10T05:31:45.264Z,7.60
2019-03-10T05:34:18.971Z,9.87
2019-03-10T05:36:52.613Z,11.03
2019-03-10T05:39:26.284Z,9.77
2019-03-10T05:42:00.053Z,12.07
2019-03-10T05:44:33.687Z,12.23
2019-03-10T05:47:07.803Z,8.03
2019-03-10T05:49:41.901Z,7.43
2019-03-10T05:52:15.553Z,5.10
2019-03-10T05:54:49.219Z,5.53
2019-03-10T05:57:23.027Z,12.23
2019-03-10T05:59:58.263Z,5.57
2019-03-10T06:02:31.870Z,9.53
2019-03-10T06:05:06.518Z,3.70
2019-03-10T06:07:41.634Z,8.57
2019-03-10T06:10:15.411Z,7.47
2019-03-10T06:12:49.120Z,8.40
2019-03-10T06:15:22.896Z,4.37
2019-03-10T06:17:56.584Z,4.37
2019-03-10T06:20:30.325Z,4.93
2019-03-10T06:23:03.930Z,7.53
2019-03-10T06:25:37.635Z,5.63
2019-03-10T06:28:11.617Z,6.70
2019-03-10T06:30:45.307Z,2.67
2019-03-10T06:33:19.996Z,3.53
2019-03-10T06:35:53.682Z,6.30
2019-03-10T06:38:27.246Z,3.77
2019-03-10T06:41:00.978Z,5.10
2019-03-10T06:43:34.577Z,3.87
2019-03-10T06:46:08.188Z,4.33
2019-03-10T06:48:42.179Z,3.63
2019-03-10T06:51:15.927Z,3.17
2019-03-10T06:53:49.653Z,2.93
2019-03-10T06:56:23.329Z,2.87
2019-03-10T06:58:56.961Z,4.73
2019-03-10T07:01:31.176Z,3.27
2019-03-10T07:04:04.938Z,3.97
2019-03-10T07:06:38.607Z,3.47
2019-03-10T07:09:12.182Z,3.73
2019-03-10T07:11:45.770Z,3.83
2019-03-10T07:14:22.084Z,4.93
2019-03-10T07:16:55.683Z,5.87
2019-03-10T07:19:29.297Z,3.27
2019-03-10T07:22:05.005Z,3.33
2019-03-10T07:24:38.723Z,4.80
2019-03-10T07:30:51.498Z,5.60
2019-03-10T07:33:29.433Z,5.80
2019-03-10T07:36:07.559Z,13.47
2019-03-10T07:38:58.042Z,9.20
2019-03-10T07:41:39.264Z,13.70
2019-03-10T07:48:06.784Z,12.90
2019-03-10T07:50:47.778Z,13.17
2019-03-10T07:53:40.028Z,11.13
2019-03-10T07:56:15.255Z,13.50
2019-03-10T07:58:56.463Z,18.80
2019-03-10T08:01:34.709Z,13.62
2019-03-10T08:04:12.763Z,10.37
2019-03-10T08:07:04.356Z,9.13
2019-03-10T08:09:42.096Z,8.97
2019-03-10T08:15:44.744Z,10.67
2019-03-10T08:18:35.102Z,10.40
2019-03-10T08:21:13.216Z,9.07
2019-03-10T08:23:51.117Z,10.30
2019-03-10T08:26:42.670Z,8.00
2019-03-10T08:33:06.534Z,12.50
2019-03-10T08:35:41.845Z,11.67
2019-03-10T08:38:33.165Z,13.00
2019-03-10T08:41:17.516Z,10.70
2019-03-10T08:44:09.278Z,7.57
2019-03-10T08:46:50.426Z,10.30
2019-03-10T08:49:25.740Z,12.83
2019-03-10T08:52:03.804Z,10.77
2019-03-10T08:54:39.120Z,9.63
2019-03-10T08:57:17.566Z,10.27
2019-03-10T08:59:58.403Z,10.43
2019-03-10T09:02:33.738Z,7.67
2019-03-10T09:05:18.277Z,9.37
2019-03-10T09:08:02.561Z,10.43
2019-03-10T09:10:44.370Z,12.70
2019-03-10T09:17:11.552Z,9.30
2019-03-10T09:19:49.458Z,12.17
2019-03-10T09:22:27.288Z,15.03
2019-03-10T09:25:02.661Z,13.87
2019-03-10T09:27:38.009Z,12.43
2019-03-10T09:30:22.743Z,16.70
2019-03-10T09:33:09.930Z,19.80
2019-03-10T09:35:54.078Z,16.83
2019-03-10T09:38:35.353Z,23.27
2019-03-10T09:41:27.180Z,16.50
2019-03-10T09:48:03.814Z,16.97
2019-03-10T09:50:55.226Z,14.90
2019-03-10T09:53:36.337Z,16.63
2019-03-10T09:56:23.582Z,17.80
2019-03-10T09:59:07.604Z,17.70
2019-03-10T10:01:45.417Z,21.93
2019-03-10T10:04:37.414Z,18.40
2019-03-10T10:07:12.726Z,20.47
2019-03-10T10:09:50.646Z,22.00
2019-03-10T10:12:28.800Z,18.30
2019-03-10T10:15:20.258Z,18.23
2019-03-10T10:17:55.539Z,19.17
2019-03-10T10:20:33.993Z,20.30
2019-03-10T10:23:09.296Z,19.93
2019-03-10T10:25:47.479Z,17.27
2019-03-10T10:29:14.358Z,24.07
2019-03-10T10:32:06.081Z,24.23
2019-03-10T10:34:44.222Z,16.20
2019-03-10T10:37:19.521Z,19.60
2019-03-10T10:39:54.898Z,17.80
2019-03-10T10:42:46.565Z,19.93
2019-03-10T10:45:22.135Z,12.63
2019-03-10T10:48:13.840Z,14.37
2019-03-10T10:50:49.357Z,18.13
2019-03-10T10:53:24.551Z,18.17
2019-03-10T10:56:03.145Z,16.27
2019-03-10T10:59:34.864Z,10.13
2019-03-10T11:02:13.496Z,17.70
2019-03-10T11:04:50.878Z,11.90
2019-03-10T11:07:27.455Z,18.03
2019-03-10T11:10:21.501Z,18.60
2019-03-10T11:12:57.867Z,14.40
2019-03-10T11:15:35.782Z,10.43
2019-03-10T11:18:25.861Z,12.07
2019-03-10T11:21:01.151Z,14.77
2019-03-10T11:23:53.853Z,12.77
2019-03-10T11:26:29.185Z,14.60
2019-03-10T11:32:59.669Z,12.63
2019-03-10T11:35:37.444Z,9.67
2019-03-10T11:38:29.193Z,12.30
2019-03-10T11:41:13.474Z,15.00
2019-03-10T11:43:48.793Z,13.23
2019-03-10T11:46:27.296Z,13.57
2019-03-10T11:49:06.579Z,12.40
2019-03-10T11:51:41.875Z,13.20
2019-03-10T11:54:33.749Z,11.93
2019-03-10T11:57:21.195Z,13.37
2019-03-10T12:00:08.099Z,10.93
2019-03-10T12:02:43.405Z,9.67
2019-03-10T12:05:24.904Z,10.67
2019-03-10T12:08:02.700Z,11.40
2019-03-10T12:10:36.309Z,12.67
2019-03-10T12:13:12.466Z,15.67
2019-03-10T12:15:46.213Z,13.07
2019-03-10T12:18:19.793Z,12.73
2019-03-10T12:20:53.548Z,15.90
2019-03-10T12:23:27.343Z,10.67
2019-03-10T12:26:00.949Z,10.87
2019-03-10T12:28:34.672Z,14.10
2019-03-10T12:31:09.269Z,15.23
2019-03-10T12:33:42.985Z,14.67
2019-03-10T12:36:16.635Z,10.93
2019-03-10T12:38:56.485Z,9.90
2019-03-10T12:41:26.147Z,13.40
2019-03-10T12:44:01.457Z,8.43
2019-03-10T12:46:35.229Z,10.77
2019-03-10T12:49:10.501Z,10.00
2019-03-10T12:51:44.086Z,11.50
2019-03-10T12:54:17.812Z,11.70
2019-03-10T12:56:56.830Z,13.10
2019-03-10T13:03:08.318Z,9.80
2019-03-10T13:05:42.015Z,14.83
2019-03-10T13:08:19.025Z,16.67
2019-03-10T13:10:52.613Z,13.90
2019-03-10T13:13:26.471Z,12.70
2019-03-10T13:19:46.432Z,15.37
2019-03-10T13:22:20.014Z,8.67
2019-03-10T13:24:53.720Z,10.43
2019-03-10T13:27:27.461Z,14.63
2019-03-10T13:30:01.912Z,7.43
2019-03-10T13:32:36.459Z,8.53
2019-03-10T13:35:10.428Z,14.43
2019-03-10T13:37:46.372Z,10.50
2019-03-10T13:40:20.102Z,15.07
2019-03-10T13:42:53.719Z,7.73
2019-03-10T13:45:29.554Z,7.23
2019-03-10T13:48:03.228Z,12.00
2019-03-10T13:50:37.243Z,9.73
2019-03-10T13:53:11.027Z,9.97
2019-03-10T13:55:44.693Z,9.57
2019-03-10T13:58:18.430Z,13.33
2019-03-10T14:00:52.156Z,12.77
2019-03-10T14:03:26.207Z,9.67
2019-03-10T14:05:59.808Z,9.23
2019-03-10T14:08:33.613Z,9.23
2019-03-10T14:11:07.434Z,13.60
2019-03-10T14:13:42.933Z,14.93
2019-03-10T14:16:21.093Z,12.10
2019-03-10T14:18:59.843Z,9.63
2019-03-10T14:21:34.343Z,10.40
2019-03-10T14:24:08.137Z,14.17
2019-03-10T14:26:41.957Z,16.17
2019-03-10T14:29:16.015Z,11.60
2019-03-10T14:31:51.187Z,13.80
2019-03-10T14:34:25.218Z,15.27
2019-03-10T14:36:58.938Z,9.20
2019-03-10T14:39:41.103Z,21.50
2019-03-10T14:42:14.831Z,16.57
2019-03-10T14:44:48.699Z,14.07
2019-03-10T14:47:22.345Z,14.23
2019-03-10T14:49:57.612Z,14.17
2019-03-10T14:52:31.485Z,13.07
2019-03-10T14:55:08.196Z,15.10
2019-03-10T14:57:48.341Z,14.20
2019-03-10T15:03:58.085Z,13.90
2019-03-10T15:06:34.733Z,11.90
2019-03-10T15:09:08.573Z,16.37
2019-03-10T15:11:42.327Z,15.67
2019-03-10T15:14:15.967Z,12.87
2019-03-10T15:20:27.192Z,14.27
2019-03-10T15:23:00.862Z,17.53
2019-03-10T15:25:34.684Z,11.83
2019-03-10T15:28:08.491Z,10.77
2019-03-10T15:30:43.873Z,15.97
2019-03-10T15:33:17.495Z,11.17
2019-03-10T15:35:51.435Z,12.20
2019-03-10T15:38:25.205Z,15.87
2019-03-10T15:40:58.893Z,16.60
2019-03-10T15:43:32.871Z,8.17
2019-03-10T15:46:08.298Z,18.63
2019-03-10T15:48:41.954Z,12.87
2019-03-10T15:51:15.649Z,11.57
2019-03-10T15:53:49.649Z,22.80
2019-03-10T15:56:23.275Z,16.53
2019-03-10T15:58:57.038Z,19.33
2019-03-10T16:01:31.872Z,18.47
2019-03-10T16:04:19.333Z,19.13
2019-03-10T16:06:53.434Z,14.30
2019-03-10T16:09:27.245Z,17.63
2019-03-10T16:12:00.847Z,16.93
2019-03-10T16:14:34.624Z,28.80
2019-03-10T16:17:08.356Z,16.97
2019-03-10T16:19:42.067Z,20.37
2019-03-10T16:22:17.447Z,14.53
2019-03-10T16:24:51.288Z,14.97
2019-03-10T16:27:27.572Z,16.50
2019-03-10T16:30:01.432Z,15.07
2019-03-10T16:32:35.256Z,13.47
2019-03-10T16:35:10.441Z,14.93
2019-03-10T16:37:44.220Z,13.83
2019-03-10T16:40:23.646Z,14.03
2019-03-10T16:42:57.303Z,18.53
2019-03-10T16:45:31.083Z,22.17
2019-03-10T16:48:04.995Z,19.10
2019-03-10T16:50:41.532Z,17.00
2019-03-10T16:53:15.217Z,14.60
2019-03-10T16:55:48.974Z,14.50
2019-03-10T16:58:22.684Z,18.13
2019-03-10T17:00:56.380Z,24.63
2019-03-10T17:03:30.092Z,25.63
2019-03-10T17:06:03.867Z,23.27
2019-03-10T17:08:37.523Z,19.17
2019-03-10T17:11:11.232Z,20.13
2019-03-10T17:13:44.823Z,30.17
2019-03-10T17:19:55.930Z,24.13
2019-03-10T17:22:29.714Z,28.60
2019-03-10T17:25:04.092Z,32.17
2019-03-10T17:27:37.941Z,30.30
2019-03-10T17:30:26.722Z,30.90
2019-03-10T17:36:37.952Z,29.47
2019-03-10T17:39:11.699Z,28.20
2019-03-10T17:41:45.435Z,26.37
2019-03-10T17:44:19.229Z,23.63
2019-03-10T17:46:53.084Z,36.43
2019-03-10T17:49:26.944Z,30.27
2019-03-10T17:52:02.052Z,33.67
2019-03-10T17:54:36.108Z,34.77
2019-03-10T17:57:09.758Z,31.10
2019-03-10T17:59:43.495Z,27.13
2019-03-10T18:02:17.288Z,30.83
2019-03-10T18:04:51.046Z,29.07
2019-03-10T18:07:25.846Z,31.70
2019-03-10T18:09:59.965Z,31.13
2019-03-10T18:12:33.691Z,33.33
2019-03-10T18:15:10.314Z,34.37
2019-03-10T18:17:46.276Z,37.27
2019-03-10T18:20:20.896Z,37.40
2019-03-10T18:22:54.815Z,43.70
2019-03-10T18:25:29.615Z,43.37
2019-03-10T18:28:05.875Z,59.58
2019-03-10T18:30:40.426Z,60.93
2019-03-10T18:33:14.000Z,58.53
2019-03-10T18:35:52.067Z,54.40
2019-03-10T18:38:25.732Z,58.60
2019-03-10T18:40:59.739Z,46.93
2019-03-10T18:43:33.474Z,50.67
2019-03-10T18:46:15.107Z,49.40
2019-03-10T18:48:48.737Z,55.17
2019-03-10T18:51:25.314Z,58.47
2019-03-10T18:53:59.117Z,65.77
2019-03-10T18:56:32.817Z,59.50
2019-03-10T18:59:06.427Z,65.60
2019-03-10T19:01:40.156Z,70.50
2019-03-10T19:04:13.948Z,63.80
2019-03-10T19:06:47.650Z,55.77
2019-03-10T19:09:22.565Z,60.00
2019-03-10T19:11:56.175Z,58.33
2019-03-10T19:14:29.905Z,51.33
2019-03-10T19:17:03.503Z,55.30
2019-03-10T19:19:37.239Z,52.10
2019-03-10T19:22:10.986Z,63.50
2019-03-10T19:24:48.475Z,61.73
2019-03-10T19:27:30.139Z,71.87
2019-03-10T19:29:57.937Z,61.53
2019-03-10T19:36:18.367Z,58.17
2019-03-10T19:38:52.134Z,59.97
2019-03-10T19:41:26.078Z,63.50
2019-03-10T19:44:02.593Z,63.37
2019-03-10T19:46:36.276Z,52.83
2019-03-10T19:52:57.096Z,54.63
2019-03-10T19:55:30.894Z,58.33
2019-03-10T19:58:04.805Z,54.77
2019-03-10T20:00:38.645Z,51.93
2019-03-10T20:03:12.256Z,53.63
2019-03-10T20:05:46.013Z,47.87
2019-03-10T20:08:19.810Z,52.40
2019-03-10T20:10:53.631Z,45.63
2019-03-10T20:13:27.469Z,44.33
2019-03-10T20:16:01.272Z,53.27
2019-03-10T20:18:36.148Z,61.47
2019-03-10T20:21:09.970Z,56.97
2019-03-10T20:23:43.859Z,66.80
2019-03-10T20:26:19.905Z,71.87
2019-03-10T20:28:53.637Z,71.37
2019-03-10T20:31:27.965Z,60.80
2019-03-10T20:34:03.170Z,47.53
2019-03-10T20:36:39.857Z,53.33
2019-03-10T20:39:13.553Z,50.90
2019-03-10T20:41:48.877Z,67.70
2019-03-10T20:44:22.563Z,66.47
2019-03-10T20:46:56.299Z,61.10
2019-03-10T20:49:29.899Z,48.73
2019-03-10T20:52:03.622Z,61.07
2019-03-10T20:54:37.506Z,49.97
2019-03-10T20:57:11.165Z,50.47
2019-03-10T20:59:45.865Z,47.60
2019-03-10T21:02:21.490Z,41.00
2019-03-10T21:04:57.931Z,41.80
2019-03-10T21:07:31.540Z,40.43
2019-03-10T21:10:10.968Z,41.97
2019-03-10T21:12:44.783Z,37.07
2019-03-10T21:15:20.741Z,30.07
2019-03-10T21:17:54.401Z,30.80
2019-03-10T21:20:28.196Z,36.23
2019-03-10T21:23:02.812Z,32.73
2019-03-10T21:25:36.621Z,36.63
2019-03-10T21:28:10.376Z,33.43
2019-03-10T21:30:45.290Z,50.70
2019-03-10T21:37:06.967Z,52.37
2019-03-10T21:39:42.273Z,39.70
2019-03-10T21:42:16.004Z,50.27
2019-03-10T21:44:49.585Z,49.77
2019-03-10T21:47:24.842Z,51.43
2019-03-10T21:53:44.601Z,52.97
2019-03-10T21:56:18.392Z,45.50
2019-03-10T21:58:53.595Z,47.57
2019-03-10T22:01:27.161Z,51.70
2019-03-10T22:04:00.838Z,66.70
2019-03-10T22:06:34.647Z,73.93
2019-03-10T22:09:08.263Z,61.63
2019-03-10T22:11:41.938Z,65.47
2019-03-10T22:14:15.603Z,72.33
2019-03-10T22:16:51.006Z,69.43
2019-03-10T22:19:24.613Z,72.83
2019-03-10T22:21:58.300Z,69.93
2019-03-10T22:24:32.037Z,65.50
2019-03-10T22:27:07.256Z,64.57
2019-03-10T22:29:40.877Z,64.70
2019-03-10T22:32:16.048Z,62.73
2019-03-10T22:34:49.785Z,59.20
2019-03-10T22:37:23.513Z,45.47
2019-03-10T22:39:57.647Z,42.53
2019-03-10T22:42:31.303Z,45.27
2019-03-10T22:45:06.628Z,34.33
2019-03-10T22:47:40.291Z,33.33
2019-03-10T22:50:14.967Z,31.57
2019-03-10T22:52:48.722Z,23.67
2019-03-10T22:55:22.535Z,25.20
2019-03-10T22:57:56.825Z,21.37
2019-03-10T23:00:47.757Z,23.43
2019-03-10T23:03:21.599Z,23.90
2019-03-10T23:05:56.778Z,15.77
2019-03-10T23:08:30.497Z,21.60
2019-03-10T23:11:04.687Z,20.77
2019-03-10T23:13:38.921Z,23.90
2019-03-10T23:16:12.739Z,18.30
2019-03-10T23:21:56.015Z,17.47
2019-03-10T23:24:29.687Z,16.53
2019-03-10T23:27:03.327Z,11.50
2019-03-10T23:29:37.119Z,16.33
2019-03-10T23:32:10.693Z,14.50
2019-03-10T23:38:21.809Z,15.90
2019-03-10T23:40:55.581Z,12.93
2019-03-10T23:43:29.931Z,9.90
2019-03-10T23:46:03.583Z,13.80
2019-03-10T23:48:37.338Z,20.50
2019-03-10T23:54:56.786Z,12.47
2019-03-10T23:57:31.603Z,9.40
